Kitchener, Canada
Current Conditions -  °F | °C
As of 2:00 PM on Saturday 25 Oct 2014 (Local Time) from CYKF Reporting Station
Overcast Overcast  
Wind Chill: 13°   Ceiling: 1700
Heat Index: 13°   Visibility: 7mi
Dew Point: 10°   Wind: 17mph
Humidity: 82%   Direction: 260°W
Pressure: 29.65"   Gusts: NA
Location:  43.45°N, 80.49°W
Report Text: CYKF 251800Z AUTO 26015KT 7SM OVC017 13/10 A2965 RMK SLP043 DENSITY ALT 1300FT
Loading
Personal Weather Stations






























Interactive Weather Map
Tropical Storm Tracking
New forecast layout! Learn more

10-Day Weather Forecast

Advertisements
Track Severe Weather on mobile